DEHHC EDLW-EDLW

Flight info

Callsign DEHHC
Flight time 0h 12m
Altitude
Route
Aircraft PA28A

Departure

Time 2026-04-30 18:07
Airport Dortmund Airport (EDLW)

Arrival

Time 2026-04-30 18:20
Airport Dortmund Airport (EDLW)
Time Latitude Longitude Altitude Speed Heading
2026-04-30 18:00 51.51215 7.60454 468 ft 0 kts 105°
2026-04-30 18:01 51.51205 7.60367 466 ft 14 kts 261°
2026-04-30 18:02 51.51269 7.60374 457 ft 20 kts 61°
2026-04-30 18:02 51.51497 7.61015 438 ft 16 kts 51°
2026-04-30 18:03 51.51525 7.60699 422 ft 4 kts 260°
2026-04-30 18:04 51.51526 7.60681 420 ft 0 kts 286°
2026-04-30 18:05 51.51620 7.60624 417 ft 7 kts 45°
2026-04-30 18:06 51.52428 7.62837 919 ft 95 kts 51°
2026-04-30 18:07 51.52743 7.60082 1240 ft 92 kts 236°
2026-04-30 18:08 51.51658 7.57202 1361 ft 111 kts 235°
2026-04-30 18:09 51.50655 7.57328 1065 ft 71 kts 76°
2026-04-30 18:10 51.51563 7.60415 488 ft 67 kts 64°
2026-04-30 18:11 51.52389 7.63318 1216 ft 92 kts 104°
2026-04-30 18:11 51.50852 7.61598 1377 ft 114 kts 241°
2026-04-30 18:12 51.50754 7.58603 1312 ft 96 kts 33°
2026-04-30 18:13 51.51471 7.60168 610 ft 73 kts 76°
2026-04-30 18:13 51.51982 7.61616 553 ft 63 kts 64°
2026-04-30 18:14 51.52735 7.63078 1265 ft 87 kts 16°
2026-04-30 18:15 51.53269 7.60304 1750 ft 133 kts 249°
2026-04-30 18:15 51.51840 7.57690 1323 ft 79 kts 154°
2026-04-30 18:16 51.51138 7.59090 772 ft 96 kts 68°
2026-04-30 18:16 51.51711 7.60841 522 ft 88 kts 63°
2026-04-30 18:17 51.52022 7.61745 648 ft 89 kts 68°
2026-04-30 18:17 51.52276 7.62583 792 ft 93 kts 57°
2026-04-30 18:17 51.51801 7.63777 1334 ft 117 kts 191°
2026-04-30 18:18 51.51266 7.62590 1306 ft 138 kts 242°
2026-04-30 18:18 51.50860 7.61230 1273 ft 130 kts 243°
2026-04-30 18:18 51.50486 7.59862 1284 ft 139 kts 246°
2026-04-30 18:18 51.50689 7.58468 1116 ft 145 kts 348°
2026-04-30 18:19 51.51218 7.59435 674 ft 108 kts 76°
2026-04-30 18:19 51.51512 7.60258 565 ft 69 kts 64°
2026-04-30 18:19 51.51739 7.60930 452 ft 69 kts 63°
2026-04-30 18:19 51.51938 7.61535 407 ft 53 kts 59°
2026-04-30 18:20 51.52089 7.61950 406 ft 35 kts 62°
2026-04-30 18:20 51.52180 7.62222 407 ft 20 kts 71°
2026-04-30 18:20 51.52162 7.62322 407 ft 5 kts 147°
2026-04-30 18:20 51.52124 7.62360 404 ft 7 kts 151°
2026-04-30 18:21 51.52056 7.62386 408 ft 7 kts 216°
2026-04-30 18:21 51.52051 7.62379 408 ft 0 kts 233°
2026-04-30 18:22 51.51965 7.62148 414 ft 25 kts 241°
2026-04-30 18:22 51.51869 7.61876 427 ft 27 kts 245°
2026-04-30 18:23 51.51764 7.61580 426 ft 33 kts 245°
2026-04-30 18:23 51.51686 7.61361 434 ft 19 kts 237°
2026-04-30 18:23 51.51615 7.61162 428 ft 22 kts 227°
2026-04-30 18:23 51.51502 7.61016 439 ft 17 kts 220°
2026-04-30 18:24 51.51368 7.60648 454 ft 13 kts 235°
2026-04-30 18:24 51.51343 7.60582 455 ft 13 kts 238°
2026-04-30 18:24 51.51303 7.60479 456 ft 11 kts 244°
2026-04-30 18:25 51.51255 7.60331 458 ft 15 kts 243°
2026-04-30 18:25 51.51172 7.60229 463 ft 11 kts 69°
2026-04-30 18:25 51.51204 7.60341 465 ft 10 kts 64°